createdAt,value
2023-03-02T00:00:41.677Z,9.40
2023-03-02T00:03:09.777Z,8.27
2023-03-02T00:05:37.022Z,8.93
2023-03-02T00:08:04.259Z,9.53
2023-03-02T00:10:31.322Z,8.70
2023-03-02T00:12:58.769Z,9.80
2023-03-02T00:15:25.555Z,8.57
2023-03-02T00:17:52.230Z,9.43
2023-03-02T00:20:18.966Z,8.90
2023-03-02T00:22:46.141Z,10.00
2023-03-02T00:25:14.141Z,9.53
2023-03-02T00:27:41.235Z,9.97
2023-03-02T00:30:08.165Z,9.53
2023-03-02T00:32:35.203Z,9.60
2023-03-02T00:35:02.076Z,9.47
2023-03-02T00:37:28.875Z,9.77
2023-03-02T00:39:55.709Z,9.33
2023-03-02T00:42:22.667Z,9.40
2023-03-02T00:44:49.336Z,8.90
2023-03-02T00:47:15.984Z,8.83
2023-03-02T00:49:42.680Z,8.90
2023-03-02T00:52:09.267Z,9.20
2023-03-02T00:54:36.790Z,9.17
2023-03-02T00:57:03.375Z,8.97
2023-03-02T00:59:29.936Z,9.27
2023-03-02T01:02:21.729Z,9.37
2023-03-02T01:04:49.470Z,9.40
2023-03-02T01:07:17.311Z,9.20
2023-03-02T01:09:44.551Z,10.07
2023-03-02T01:12:11.574Z,9.33
2023-03-02T01:14:39.144Z,9.60
2023-03-02T01:17:06.602Z,8.97
2023-03-02T01:19:33.538Z,9.40
2023-03-02T01:22:00.346Z,9.30
2023-03-02T01:24:27.115Z,9.97
2023-03-02T01:26:53.801Z,9.53
2023-03-02T01:29:20.402Z,9.27
2023-03-02T01:31:47.571Z,9.23
2023-03-02T01:34:15.936Z,9.60
2023-03-02T01:36:45.669Z,8.97
2023-03-02T01:39:16.349Z,9.33
2023-03-02T01:41:44.131Z,9.60
2023-03-02T01:44:29.727Z,9.90
2023-03-02T01:46:56.478Z,8.80
2023-03-02T01:49:23.308Z,9.87
2023-03-02T01:51:55.468Z,8.77
2023-03-02T01:54:23.460Z,10.13
2023-03-02T01:56:58.223Z,9.63
2023-03-02T01:59:26.691Z,9.97
2023-03-02T02:01:55.013Z,10.00
2023-03-02T02:04:23.171Z,9.57
2023-03-02T02:07:04.493Z,10.33
2023-03-02T02:09:33.936Z,9.20
2023-03-02T02:15:44.903Z,9.53
2023-03-02T02:18:11.710Z,10.07
2023-03-02T02:24:21.682Z,11.03
2023-03-02T02:26:50.495Z,10.47
2023-03-02T02:29:23.068Z,10.50
2023-03-02T02:32:02.972Z,9.97
2023-03-02T02:34:35.422Z,10.43
2023-03-02T02:37:07.339Z,9.73
2023-03-02T02:39:35.392Z,10.50
2023-03-02T02:42:04.010Z,10.47
2023-03-02T02:44:31.117Z,10.67
2023-03-02T02:46:57.677Z,11.37
2023-03-02T02:49:35.314Z,10.37
2023-03-02T02:52:03.195Z,11.00
2023-03-02T02:54:31.148Z,9.97
2023-03-02T02:56:59.061Z,10.97
2023-03-02T03:02:43.202Z,10.40
2023-03-02T03:05:14.406Z,11.23
2023-03-02T03:07:41.303Z,11.20
2023-03-02T03:10:14.287Z,11.53
2023-03-02T03:12:41.700Z,11.70
2023-03-02T03:15:08.887Z,10.93
2023-03-02T03:17:35.477Z,10.30
2023-03-02T03:20:11.594Z,11.13
2023-03-02T03:22:42.810Z,11.07
2023-03-02T03:25:15.364Z,11.50
2023-03-02T03:27:45.377Z,11.53
2023-03-02T03:30:13.806Z,10.97
2023-03-02T03:32:41.774Z,11.37
2023-03-02T03:35:11.672Z,11.27
2023-03-02T03:37:42.067Z,11.33
2023-03-02T03:40:09.933Z,11.20
2023-03-02T03:42:39.842Z,11.10
2023-03-02T03:45:08.627Z,11.43
2023-03-02T03:47:36.526Z,11.60
2023-03-02T03:50:04.935Z,11.37
2023-03-02T03:52:31.690Z,10.23
2023-03-02T03:55:08.486Z,11.17
2023-03-02T03:57:35.147Z,11.10
2023-03-02T04:00:02.053Z,11.10
2023-03-02T04:02:28.982Z,10.93
2023-03-02T04:04:56.235Z,11.63
2023-03-02T04:07:22.894Z,10.77
2023-03-02T04:09:49.621Z,11.27
2023-03-02T04:12:16.540Z,10.20
2023-03-02T04:14:48.154Z,10.40
2023-03-02T04:17:15.962Z,10.27
2023-03-02T04:19:45.924Z,10.23
2023-03-02T04:22:13.012Z,10.83
2023-03-02T04:24:39.646Z,11.07
2023-03-02T04:27:06.347Z,10.50
2023-03-02T04:29:34.455Z,10.73
2023-03-02T04:32:03.544Z,11.27
2023-03-02T04:34:32.477Z,10.70
2023-03-02T04:36:59.491Z,11.37
2023-03-02T04:39:26.976Z,10.57
2023-03-02T04:41:54.298Z,10.27
2023-03-02T04:44:21.139Z,10.77
2023-03-02T04:46:49.097Z,10.47
2023-03-02T04:49:16.829Z,10.27
2023-03-02T04:51:44.627Z,11.00
2023-03-02T04:54:14.776Z,11.17
2023-03-02T04:56:41.475Z,11.40
2023-03-02T04:59:08.192Z,9.87
2023-03-02T05:01:34.817Z,10.93
2023-03-02T05:04:03.031Z,10.13
2023-03-02T05:06:29.881Z,10.70
2023-03-02T05:09:00.257Z,10.93
2023-03-02T05:11:27.417Z,10.83
2023-03-02T05:13:55.817Z,10.67
2023-03-02T05:16:22.998Z,10.93
2023-03-02T05:18:49.798Z,12.03
2023-03-02T05:21:16.876Z,11.60
2023-03-02T05:23:43.775Z,11.30
2023-03-02T05:26:10.463Z,11.00
2023-03-02T05:28:37.114Z,10.87
2023-03-02T05:31:04.070Z,11.70
2023-03-02T05:33:30.923Z,10.33
2023-03-02T05:35:57.703Z,12.03
2023-03-02T05:38:24.540Z,11.00
2023-03-02T05:40:51.466Z,10.83
2023-03-02T05:43:19.913Z,10.40
2023-03-02T05:45:46.627Z,10.80
2023-03-02T05:48:14.071Z,10.67
2023-03-02T05:50:41.486Z,10.33
2023-03-02T05:53:08.292Z,10.33
2023-03-02T05:55:37.231Z,11.83
2023-03-02T05:58:06.065Z,10.70
2023-03-02T06:00:33.046Z,11.33
2023-03-02T06:02:59.684Z,11.80
2023-03-02T06:05:26.759Z,10.87
2023-03-02T06:07:54.043Z,10.57
2023-03-02T06:10:20.646Z,10.73
2023-03-02T06:12:47.294Z,10.93
2023-03-02T06:15:13.884Z,10.63
2023-03-02T06:17:40.639Z,11.17
2023-03-02T06:20:11.317Z,10.83
2023-03-02T06:22:41.292Z,11.83
2023-03-02T06:25:11.820Z,10.63
2023-03-02T06:27:39.173Z,10.80
2023-03-02T06:30:06.430Z,10.87
2023-03-02T06:32:34.455Z,10.40
2023-03-02T06:35:01.602Z,11.10
2023-03-02T06:37:28.802Z,15.83
2023-03-02T06:39:56.176Z,16.23
2023-03-02T06:42:23.535Z,13.80
2023-03-02T06:44:51.722Z,13.80
2023-03-02T06:47:18.677Z,13.60
2023-03-02T06:49:45.274Z,15.10
2023-03-02T06:52:13.665Z,16.13
2023-03-02T06:54:40.573Z,16.57
2023-03-02T06:57:07.424Z,14.40
2023-03-02T06:59:34.236Z,11.87
2023-03-02T07:02:00.921Z,11.17
2023-03-02T07:04:30.544Z,11.63
2023-03-02T07:06:57.733Z,11.50
2023-03-02T07:09:24.396Z,13.53
2023-03-02T07:11:51.338Z,11.63
2023-03-02T07:14:18.044Z,11.60
2023-03-02T07:16:44.653Z,11.10
2023-03-02T07:19:14.661Z,10.93
2023-03-02T07:21:41.436Z,10.83
2023-03-02T07:24:08.637Z,9.97
2023-03-02T07:26:35.302Z,10.57
2023-03-02T07:29:02.109Z,10.43
2023-03-02T07:34:34.378Z,11.07
2023-03-02T07:37:00.976Z,11.13
2023-03-02T07:39:27.535Z,12.37
2023-03-02T07:41:57.299Z,11.27
2023-03-02T07:44:23.873Z,12.07
2023-03-02T07:46:50.468Z,11.03
2023-03-02T07:49:17.113Z,10.63
2023-03-02T07:51:43.812Z,10.57
2023-03-02T07:54:11.119Z,9.63
2023-03-02T07:56:37.662Z,9.17
2023-03-02T07:59:04.269Z,8.47
2023-03-02T08:01:31.479Z,7.57
2023-03-02T08:03:58.445Z,8.57
2023-03-02T08:06:25.022Z,8.77
2023-03-02T08:08:52.027Z,8.43
2023-03-02T08:11:18.647Z,10.30
2023-03-02T08:13:45.735Z,8.70
2023-03-02T08:16:13.295Z,8.60
2023-03-02T08:18:40.454Z,8.57
2023-03-02T08:21:17.273Z,8.90
2023-03-02T08:23:44.335Z,9.13
2023-03-02T08:26:13.862Z,8.50
2023-03-02T08:28:41.750Z,8.77
2023-03-02T08:31:08.963Z,9.33
2023-03-02T08:33:36.021Z,9.43
2023-03-02T08:36:04.570Z,9.73
2023-03-02T08:38:31.586Z,8.70
2023-03-02T08:40:58.288Z,8.33
2023-03-02T08:43:26.615Z,9.03
2023-03-02T08:45:53.783Z,8.37
2023-03-02T08:48:21.296Z,6.47
2023-03-02T08:50:58.918Z,8.77
2023-03-02T08:53:26.292Z,7.90
2023-03-02T08:55:52.986Z,8.60
2023-03-02T08:58:19.621Z,7.80
2023-03-02T09:00:46.496Z,7.67
2023-03-02T09:03:13.465Z,7.50
2023-03-02T09:05:40.244Z,8.00
2023-03-02T09:08:07.085Z,8.87
2023-03-02T09:10:33.760Z,8.60
2023-03-02T09:13:00.384Z,9.90
2023-03-02T09:15:27.326Z,8.80
2023-03-02T09:17:54.016Z,8.33
2023-03-02T09:20:20.821Z,8.67
2023-03-02T09:22:50.810Z,9.17
2023-03-02T09:25:18.503Z,8.83
2023-03-02T09:27:46.056Z,8.73
2023-03-02T09:30:13.852Z,8.97
2023-03-02T09:32:41.038Z,10.10
2023-03-02T09:35:08.233Z,7.97
2023-03-02T09:37:37.505Z,9.47
2023-03-02T09:40:04.869Z,8.33
2023-03-02T09:42:50.120Z,7.90
2023-03-02T09:45:17.274Z,8.40
2023-03-02T09:47:53.724Z,6.60
2023-03-02T09:50:27.250Z,7.10
2023-03-02T09:53:08.230Z,6.87
2023-03-02T09:55:36.099Z,7.77
2023-03-02T09:58:06.138Z,6.20
2023-03-02T10:00:37.356Z,7.50
2023-03-02T10:03:17.350Z,6.93
2023-03-02T10:05:48.487Z,7.20
2023-03-02T10:08:16.917Z,6.80
2023-03-02T10:10:52.161Z,7.43
2023-03-02T10:13:24.956Z,5.43
2023-03-02T10:15:54.405Z,7.47
2023-03-02T10:18:23.645Z,5.63
2023-03-02T10:21:09.643Z,7.30
2023-03-02T10:23:41.911Z,6.90
2023-03-02T10:26:38.158Z,7.10
2023-03-02T10:29:14.573Z,5.80
2023-03-02T10:31:41.655Z,7.07
2023-03-02T10:34:10.166Z,8.00
2023-03-02T10:36:41.094Z,7.40
2023-03-02T10:39:12.338Z,5.93
2023-03-02T10:41:41.670Z,5.50
2023-03-02T10:44:15.709Z,6.00
2023-03-02T10:46:43.747Z,7.37
2023-03-02T10:49:25.724Z,6.87
2023-03-02T10:52:16.413Z,5.83
2023-03-02T10:54:43.086Z,6.87
2023-03-02T10:57:25.031Z,7.70
2023-03-02T10:59:52.189Z,6.27
2023-03-02T11:02:23.731Z,7.20
2023-03-02T11:04:57.354Z,7.00
2023-03-02T11:07:25.783Z,6.87
2023-03-02T11:09:59.064Z,7.63
2023-03-02T11:12:25.700Z,7.97
2023-03-02T11:15:02.684Z,7.00
2023-03-02T11:17:31.079Z,7.80
2023-03-02T11:19:57.748Z,6.83
2023-03-02T11:22:30.411Z,6.37
2023-03-02T11:24:58.426Z,8.23
2023-03-02T11:27:27.530Z,7.50
2023-03-02T11:29:57.334Z,7.43
2023-03-02T11:32:42.569Z,7.50
2023-03-02T11:35:15.313Z,6.47
2023-03-02T11:37:52.491Z,7.70
2023-03-02T11:40:22.722Z,7.47
2023-03-02T11:42:49.723Z,7.53
2023-03-02T11:45:19.660Z,7.80
2023-03-02T11:47:57.614Z,7.80
2023-03-02T11:50:29.680Z,7.50
2023-03-02T11:53:01.462Z,8.20
2023-03-02T11:55:30.250Z,7.27
2023-03-02T12:00:47.199Z,7.70
2023-03-02T12:03:17.150Z,7.53
2023-03-02T12:05:45.593Z,8.13
2023-03-02T12:08:15.366Z,6.67
2023-03-02T12:10:44.092Z,6.70
2023-03-02T12:13:10.661Z,7.00
2023-03-02T12:15:39.979Z,6.53
2023-03-02T12:18:22.048Z,6.90
2023-03-02T12:21:04.295Z,7.30
2023-03-02T12:23:32.598Z,7.83
2023-03-02T12:26:02.359Z,7.73
2023-03-02T12:28:36.896Z,6.37
2023-03-02T12:31:04.759Z,6.97
2023-03-02T12:33:31.483Z,6.23
2023-03-02T12:36:09.893Z,5.23
2023-03-02T12:38:38.861Z,7.10
2023-03-02T12:41:21.188Z,7.23
2023-03-02T12:44:06.373Z,7.20
2023-03-02T12:46:34.619Z,6.20
2023-03-02T12:49:01.579Z,5.97
2023-03-02T12:51:29.780Z,6.80
2023-03-02T12:54:03.613Z,7.00
2023-03-02T12:56:30.204Z,7.80
2023-03-02T12:58:56.863Z,9.13
2023-03-02T13:01:24.998Z,7.43
2023-03-02T13:03:53.782Z,6.30
2023-03-02T13:06:23.120Z,5.73
2023-03-02T13:08:51.504Z,6.47
2023-03-02T13:11:27.385Z,7.70
2023-03-02T13:13:54.250Z,7.27
2023-03-02T13:16:23.227Z,6.47
2023-03-02T13:18:53.893Z,7.40
2023-03-02T13:21:21.437Z,7.53
2023-03-02T13:23:50.248Z,7.37
2023-03-02T13:26:27.758Z,7.67
2023-03-02T13:29:01.862Z,5.43
2023-03-02T13:31:28.897Z,7.93
2023-03-02T13:33:57.151Z,7.27
2023-03-02T13:36:44.232Z,7.27
2023-03-02T13:39:26.534Z,6.30
2023-03-02T13:41:57.196Z,6.33
2023-03-02T13:44:28.063Z,6.10
2023-03-02T13:46:55.147Z,6.20
2023-03-02T13:49:27.980Z,6.97
2023-03-02T13:52:02.598Z,6.37
2023-03-02T13:54:30.604Z,5.97
2023-03-02T13:56:58.393Z,5.83
2023-03-02T13:59:25.290Z,6.13
2023-03-02T14:01:52.468Z,6.57
2023-03-02T14:04:23.369Z,6.30
2023-03-02T14:06:50.987Z,6.30
2023-03-02T14:09:17.637Z,6.03
2023-03-02T14:11:45.459Z,5.97
2023-03-02T14:14:14.192Z,6.53
2023-03-02T14:16:41.628Z,4.60
2023-03-02T14:19:09.620Z,6.43
2023-03-02T14:21:36.657Z,5.80
2023-03-02T14:24:03.714Z,6.03
2023-03-02T14:26:47.525Z,5.03
2023-03-02T14:29:27.973Z,6.07
2023-03-02T14:31:55.504Z,5.80
2023-03-02T14:34:22.535Z,5.00
2023-03-02T14:36:50.981Z,6.03
2023-03-02T14:39:22.959Z,6.03
2023-03-02T14:41:53.704Z,5.33
2023-03-02T14:44:21.006Z,5.63
2023-03-02T14:46:47.779Z,4.57
2023-03-02T14:49:14.504Z,5.97
2023-03-02T14:51:41.999Z,5.97
2023-03-02T14:54:11.029Z,5.93
2023-03-02T14:56:38.125Z,6.13
2023-03-02T14:59:04.887Z,5.97
2023-03-02T15:01:32.233Z,5.53
2023-03-02T15:03:59.039Z,6.27
2023-03-02T15:06:27.347Z,5.87
2023-03-02T15:08:54.570Z,6.07
2023-03-02T15:11:21.741Z,5.33
2023-03-02T15:13:48.440Z,4.87
2023-03-02T15:16:15.461Z,5.83
2023-03-02T15:18:42.552Z,5.67
2023-03-02T15:21:14.732Z,5.07
2023-03-02T15:23:41.358Z,6.00
2023-03-02T15:26:09.460Z,5.83
2023-03-02T15:28:36.078Z,5.43
2023-03-02T15:31:09.820Z,6.07
2023-03-02T15:33:36.703Z,5.87
2023-03-02T15:36:06.333Z,4.87
2023-03-02T15:38:33.858Z,5.50
2023-03-02T15:41:04.431Z,5.70
2023-03-02T15:43:31.513Z,5.20
2023-03-02T15:45:58.187Z,5.53
2023-03-02T15:48:24.792Z,5.50
2023-03-02T15:51:01.247Z,5.60
2023-03-02T15:53:28.796Z,5.17
2023-03-02T15:55:55.709Z,4.90
2023-03-02T15:58:22.502Z,4.60
2023-03-02T16:00:49.737Z,5.07
2023-03-02T16:03:16.846Z,5.53
2023-03-02T16:05:43.476Z,5.10
2023-03-02T16:08:10.114Z,4.53
2023-03-02T16:10:37.058Z,5.23
2023-03-02T16:13:04.744Z,5.37
2023-03-02T16:15:31.993Z,5.47
2023-03-02T16:17:58.688Z,5.20
2023-03-02T16:20:25.293Z,4.63
2023-03-02T16:22:51.891Z,4.87
2023-03-02T16:25:18.642Z,5.60
2023-03-02T16:27:47.604Z,5.43
2023-03-02T16:30:15.499Z,4.93
2023-03-02T16:32:42.241Z,5.37
2023-03-02T16:35:09.397Z,5.83
2023-03-02T16:37:36.102Z,5.63
2023-03-02T16:40:02.751Z,5.70
2023-03-02T16:42:30.479Z,6.30
2023-03-02T16:44:57.228Z,6.00
2023-03-02T16:47:23.891Z,6.50
2023-03-02T16:49:50.451Z,6.33
2023-03-02T16:52:17.712Z,6.60
2023-03-02T16:54:45.131Z,6.97
2023-03-02T16:57:11.825Z,6.77
2023-03-02T16:59:38.565Z,6.27
2023-03-02T17:02:05.200Z,7.83
2023-03-02T17:04:35.075Z,6.90
2023-03-02T17:07:03.144Z,7.33
2023-03-02T17:09:30.564Z,6.00
2023-03-02T17:11:57.246Z,6.17
2023-03-02T17:14:24.015Z,6.03
2023-03-02T17:16:50.675Z,6.43
2023-03-02T17:19:17.293Z,7.17
2023-03-02T17:21:43.926Z,6.80
2023-03-02T17:24:10.573Z,7.17
2023-03-02T17:26:37.282Z,6.93
2023-03-02T17:29:03.918Z,7.80
2023-03-02T17:31:30.653Z,7.10
2023-03-02T17:34:08.693Z,7.43
2023-03-02T17:36:36.847Z,6.63
2023-03-02T17:39:04.274Z,7.50
2023-03-02T17:41:31.481Z,8.47
2023-03-02T17:43:58.141Z,8.03
2023-03-02T17:46:25.822Z,7.43
2023-03-02T17:48:54.271Z,7.03
2023-03-02T17:51:22.303Z,9.07
2023-03-02T17:53:50.569Z,9.87
2023-03-02T17:56:22.183Z,8.30
2023-03-02T17:58:54.652Z,8.00
2023-03-02T18:01:21.564Z,8.40
2023-03-02T18:03:48.458Z,8.80
2023-03-02T18:06:17.960Z,9.23
2023-03-02T18:08:45.099Z,9.33
2023-03-02T18:11:11.846Z,12.00
2023-03-02T18:13:38.866Z,11.20
2023-03-02T18:16:05.834Z,9.17
2023-03-02T18:18:32.701Z,9.97
2023-03-02T18:20:59.630Z,9.10
2023-03-02T18:23:26.897Z,9.50
2023-03-02T18:25:53.641Z,9.83
2023-03-02T18:28:20.326Z,10.57
2023-03-02T18:30:47.639Z,9.67
2023-03-02T18:33:14.275Z,9.50
2023-03-02T18:35:40.923Z,9.37
2023-03-02T18:38:07.788Z,8.53
2023-03-02T18:40:35.322Z,8.97
2023-03-02T18:43:02.045Z,10.47
2023-03-02T18:45:30.034Z,13.67
2023-03-02T18:47:57.339Z,12.40
2023-03-02T18:50:24.163Z,13.30
2023-03-02T18:52:52.998Z,16.83
2023-03-02T18:55:20.537Z,17.07
2023-03-02T18:57:47.426Z,18.13
2023-03-02T19:00:16.102Z,14.03
2023-03-02T19:02:42.799Z,14.40
2023-03-02T19:05:09.715Z,9.80
2023-03-02T19:07:37.475Z,9.20
2023-03-02T19:10:04.886Z,9.67
2023-03-02T19:12:31.527Z,10.07
2023-03-02T19:14:59.314Z,10.53
2023-03-02T19:17:26.048Z,10.17
2023-03-02T19:19:52.963Z,9.23
2023-03-02T19:22:19.639Z,9.87
2023-03-02T19:24:47.229Z,10.20
2023-03-02T19:27:14.459Z,10.77
2023-03-02T19:29:41.407Z,11.57
2023-03-02T19:32:08.461Z,10.33
2023-03-02T19:34:35.731Z,10.53
2023-03-02T19:37:03.483Z,11.17
2023-03-02T19:39:30.266Z,10.37
2023-03-02T19:41:56.998Z,10.37
2023-03-02T19:44:25.812Z,10.60
2023-03-02T19:46:53.098Z,11.37
2023-03-02T19:49:19.752Z,11.10
2023-03-02T19:51:46.489Z,11.47
2023-03-02T19:54:13.160Z,11.87
2023-03-02T19:56:43.135Z,11.53
2023-03-02T19:59:10.303Z,11.83
2023-03-02T20:01:37.289Z,11.40
2023-03-02T20:04:04.160Z,11.40
2023-03-02T20:06:32.058Z,11.47
2023-03-02T20:09:03.692Z,11.57
2023-03-02T20:11:31.492Z,11.43
2023-03-02T20:14:02.257Z,11.47
2023-03-02T20:16:33.681Z,11.97
2023-03-02T20:19:02.126Z,11.83
2023-03-02T20:21:33.022Z,12.30
2023-03-02T20:24:00.290Z,12.30
2023-03-02T20:26:27.280Z,12.10
2023-03-02T20:28:55.594Z,12.43
2023-03-02T20:31:23.724Z,12.27
2023-03-02T20:33:52.027Z,12.70
2023-03-02T20:36:21.604Z,12.50
2023-03-02T20:38:54.053Z,12.53
2023-03-02T20:41:20.769Z,13.47
2023-03-02T20:43:48.046Z,15.10
2023-03-02T20:46:20.475Z,14.33
2023-03-02T20:48:48.203Z,14.70
2023-03-02T20:51:14.936Z,11.07
2023-03-02T20:53:43.163Z,13.47
2023-03-02T20:56:11.365Z,11.47
2023-03-02T20:58:41.508Z,12.63
2023-03-02T21:01:08.314Z,11.37
2023-03-02T21:03:35.703Z,14.30
2023-03-02T21:06:03.057Z,13.60
2023-03-02T21:08:29.838Z,14.10
2023-03-02T21:10:56.502Z,14.40
2023-03-02T21:13:23.668Z,13.43
2023-03-02T21:15:50.911Z,14.73
2023-03-02T21:18:17.743Z,20.57
2023-03-02T21:20:44.578Z,24.63
2023-03-02T21:23:13.127Z,15.23
2023-03-02T21:25:42.267Z,16.37
2023-03-02T21:28:09.632Z,15.90
2023-03-02T21:30:36.736Z,14.47
2023-03-02T21:33:03.661Z,14.27
2023-03-02T21:35:30.779Z,16.33
2023-03-02T21:37:58.588Z,16.57
2023-03-02T21:40:27.010Z,16.63
2023-03-02T21:42:53.930Z,16.40
2023-03-02T21:45:21.152Z,16.03
2023-03-02T21:47:47.810Z,13.90
2023-03-02T21:50:17.126Z,17.37
2023-03-02T21:52:43.784Z,15.83
2023-03-02T21:55:11.572Z,16.47
2023-03-02T21:57:38.772Z,17.40
2023-03-02T22:00:06.344Z,16.23
2023-03-02T22:02:33.300Z,16.70
2023-03-02T22:05:00.006Z,17.37
2023-03-02T22:07:26.686Z,16.50
2023-03-02T22:09:53.383Z,17.30
2023-03-02T22:12:22.573Z,16.73
2023-03-02T22:14:49.328Z,17.30
2023-03-02T22:17:18.260Z,18.00
2023-03-02T22:19:45.451Z,18.60
2023-03-02T22:22:15.706Z,18.97
2023-03-02T22:24:43.629Z,18.43
2023-03-02T22:27:27.086Z,17.97
2023-03-02T22:29:56.662Z,18.67
2023-03-02T22:32:23.436Z,19.17
2023-03-02T22:34:52.196Z,17.23
2023-03-02T22:37:20.546Z,19.30
2023-03-02T22:39:47.756Z,19.43
2023-03-02T22:42:16.326Z,18.43
2023-03-02T22:44:43.996Z,18.77
2023-03-02T22:47:14.790Z,19.83
2023-03-02T22:49:41.992Z,19.37
2023-03-02T22:52:17.476Z,19.00
2023-03-02T22:54:45.673Z,19.30
2023-03-02T22:57:27.967Z,20.37
2023-03-02T23:00:17.365Z,18.23
2023-03-02T23:02:45.072Z,18.00
2023-03-02T23:05:29.750Z,20.40
2023-03-02T23:08:09.892Z,20.90
2023-03-02T23:10:36.500Z,21.27
2023-03-02T23:13:03.171Z,20.87
2023-03-02T23:15:29.860Z,19.90
2023-03-02T23:17:57.348Z,20.30
2023-03-02T23:20:24.085Z,19.17
2023-03-02T23:22:51.806Z,22.00
2023-03-02T23:25:19.493Z,20.60
2023-03-02T23:27:46.167Z,21.40
2023-03-02T23:30:17.830Z,22.77
2023-03-02T23:32:44.592Z,20.67
2023-03-02T23:35:11.281Z,21.40
2023-03-02T23:37:37.939Z,21.10
2023-03-02T23:40:05.512Z,20.93
2023-03-02T23:42:32.106Z,22.90
2023-03-02T23:44:58.756Z,22.97
2023-03-02T23:47:25.380Z,22.40
2023-03-02T23:49:52.056Z,23.70
2023-03-02T23:52:18.673Z,24.33
2023-03-02T23:54:46.293Z,20.50
2023-03-02T23:57:13.600Z,23.13
2023-03-02T23:59:40.356Z,23.07
